KAUG/AUG METAR and TAF weather

Enter ICAO airport designator
Station Type Date Time Source
KAUG METAR 2018/09/21 22:53 UTC NOAA

KAUG 212253Z AUTO 18010G19KT 10SM FEW018 OVC032 16/12 A2997 RMK AO2 SLP148 T01560122


Station Type Date Time Source
KAUG Decoded METAR 2018/09/21 22:53 UTC NOAA

AUGUSTA STATE AIRPORT, ME, United States (KAUG) 44-19N 069-48W 109M
Sep 21, 2018 - 06:53 PM EDT / 2018.09.21 2253 UTC
Wind: from the S (180 degrees) at 12 MPH (10 KT) gusting to 22 MPH (19 KT):0
Visibility: 10 mile(s):0
Sky conditions: overcast
Temperature: 60.1 F (15.6 C)
Dew Point: 54.0 F (12.2 C)
Relative Humidity: 80%
Pressure (altimeter): 29.97 in. Hg (1014 hPa)
ob: KAUG 212253Z AUTO 18010G19KT 10SM FEW018 OVC032 16/12 A2997 RMK AO2 SLP148 T01560122
cycle: 23

Station Type Date Time Source
KAUG TAF 2018/09/21 22:22 UTC NOAA

TAF
AMD KAUG 212220Z 2122/2218 18012G17KT P6SM BKN021 OVC035
FM220300 20013G21KT 6SM -SHRA BR BKN020 OVC030
FM220900 29010G20KT P6SM BKN050
FM221200 32013G22KT P6SM SCT050


Example: see airport list